Time;durP1;ratioP1;P1;durP2;ratioP2;P2;SDS_P1;SDS_P2;PMS_P1;PMS_P2;Temp;Humidity;BMP_temperature;BMP_pressure;BME280_temperature;BME280_humidity;BME280_pressure;Samples;Min_cycle;Max_cycle;Signal;HPM_P1;HPM_P2
2021/04/18 00:00:26;;;;;;;15.13;6.77;;;;;;;9.84;53.28;100759.83;126272;1099;104274;-77
2021/04/18 00:03:15;;;;;;;14.80;6.83;;;;;;;9.81;53.54;100759.69;126206;1099;104274;-77
2021/04/18 00:05:45;;;;;;;14.60;7.10;;;;;;;9.79;53.65;100757.86;126238;1099;104176;-76
2021/04/18 00:08:20;;;;;;;16.60;7.13;;;;;;;9.76;53.26;100752.48;126158;1099;104175;-77
2021/04/18 00:10:49;;;;;;;16.20;7.43;;;;;;;9.75;53.85;100751.56;126246;1099;104153;-76
2021/04/18 00:13:19;;;;;;;15.50;6.93;;;;;;;9.74;53.76;100755.04;126254;1099;104149;-77
2021/04/18 00:15:47;;;;;;;14.43;7.17;;;;;;;9.73;53.75;100754.97;126232;1098;104143;-78
2021/04/18 00:18:16;;;;;;;15.70;7.00;;;;;;;9.74;54.05;100756.73;126287;1099;104668;-78
2021/04/18 00:20:45;;;;;;;14.37;6.80;;;;;;;9.73;53.55;100757.59;126220;1099;104144;-77
2021/04/18 00:23:14;;;;;;;14.23;6.90;;;;;;;9.71;53.62;100757.53;126212;1099;104252;-77
2021/04/18 00:25:42;;;;;;;14.05;7.05;;;;;;;9.68;53.81;100757.39;126271;1099;104172;-78
2021/04/18 00:28:11;;;;;;;14.03;6.83;;;;;;;9.64;54.27;100744.98;126155;1099;104219;-77
2021/04/18 00:30:41;;;;;;;14.53;6.57;;;;;;;9.64;54.32;100753.72;126250;1099;104117;-77
2021/04/18 00:33:09;;;;;;;12.80;6.60;;;;;;;9.66;53.89;100752.08;126215;1099;104211;-78
2021/04/18 00:35:39;;;;;;;17.77;8.27;;;;;;;9.67;53.91;100745.11;126271;1099;104191;-77
2021/04/18 00:38:08;;;;;;;14.77;6.90;;;;;;;9.65;54.54;100749.40;126224;1099;104243;-77
2021/04/18 00:40:39;;;;;;;15.93;7.33;;;;;;;9.66;54.63;100746.84;126225;1099;104657;-77
2021/04/18 00:43:11;;;;;;;14.73;6.77;;;;;;;9.65;54.17;100752.91;126258;1099;104229;-77
2021/04/18 00:45:40;;;;;;;16.60;7.67;;;;;;;9.66;54.10;100752.08;126280;1099;104158;-77
2021/04/18 00:48:10;;;;;;;16.00;7.90;;;;;;;9.66;54.28;100751.16;126182;1099;104178;-77
2021/04/18 00:50:40;;;;;;;14.27;7.60;;;;;;;9.64;54.13;100751.09;126139;1099;104380;-77
2021/04/18 00:53:09;;;;;;;16.43;7.53;;;;;;;9.64;54.19;100755.45;126209;1099;104306;-77
2021/04/18 00:55:41;;;;;;;16.53;7.40;;;;;;;9.63;54.44;100751.03;126201;1099;104149;-78
2021/04/18 00:58:11;;;;;;;17.23;7.30;;;;;;;9.61;54.24;100748.34;126193;1099;104137;-77
2021/04/18 01:00:41;;;;;;;15.97;7.67;;;;;;;9.57;54.99;100754.30;126235;1099;104133;-77
2021/04/18 01:03:11;;;;;;;17.87;7.83;;;;;;;9.54;54.41;100754.17;126213;1099;104299;-77
2021/04/18 01:05:42;;;;;;;16.73;8.30;;;;;;;9.51;55.07;100751.41;126155;1099;104169;-78
2021/04/18 01:08:11;;;;;;;16.50;7.93;;;;;;;9.49;54.50;100753.97;126162;1099;102019;-77
2021/04/18 01:10:41;;;;;;;16.23;7.73;;;;;;;9.47;55.14;100757.33;126240;1099;104261;-77
2021/04/18 01:13:10;;;;;;;19.23;8.37;;;;;;;9.46;54.66;100763.42;126241;1099;103354;-77
2021/04/18 01:15:40;;;;;;;21.30;8.47;;;;;;;9.47;54.78;100767.81;126183;1099;104191;-77
2021/04/18 01:18:11;;;;;;;19.80;7.57;;;;;;;9.49;55.26;100764.44;126131;1099;104306;-77
2021/04/18 01:20:40;;;;;;;19.40;7.37;;;;;;;9.52;55.41;100769.81;126230;1099;102059;-77
2021/04/18 01:26:32;;;;;;;17.30;7.70;;;;;;;9.57;55.30;100756.92;126214;1099;104271;-77
2021/04/18 01:29:06;;;;;;;18.00;7.43;;;;;;;9.57;55.57;100756.92;126201;1099;104245;-77
2021/04/18 01:31:35;;;;;;;17.45;7.85;;;;;;;9.58;55.04;100763.05;126169;1098;104171;-76
2021/04/18 01:34:12;;;;;;;18.87;8.07;;;;;;;9.56;55.00;100754.23;126193;1099;104185;-77
2021/04/18 01:36:44;;;;;;;17.10;8.13;;;;;;;9.53;55.70;100752.37;126154;1099;104165;-76
2021/04/18 01:39:14;;;;;;;17.83;7.87;;;;;;;9.51;55.85;100754.92;126180;1098;104149;-77
2021/04/18 01:41:44;;;;;;;15.60;7.50;;;;;;;9.49;55.24;100750.42;126230;1099;104274;-76
2021/04/18 01:44:13;;;;;;;17.70;8.30;;;;;;;9.47;55.26;100747.77;126189;1098;104155;-77
2021/04/18 01:46:46;;;;;;;21.73;8.40;;;;;;;9.46;55.65;100747.70;126185;1099;104207;-77
2021/04/18 01:49:15;;;;;;;20.00;8.47;;;;;;;9.44;55.54;100749.34;126131;1099;104150;-77
2021/04/18 01:51:46;;;;;;;18.43;7.57;;;;;;;9.42;56.00;100751.00;126172;1099;104297;-77
2021/04/18 01:54:16;;;;;;;19.07;9.00;;;;;;;9.40;55.60;100752.67;126162;1098;104207;-77
2021/04/18 01:56:45;;;;;;;21.50;9.25;;;;;;;9.37;55.65;100758.66;126196;1099;104422;-76
2021/04/18 01:59:15;;;;;;;17.97;7.57;;;;;;;9.35;55.73;100753.34;126192;1099;104153;-76
2021/04/18 02:02:13;;;;;;;18.60;8.20;;;;;;;9.35;56.27;100755.97;126187;1099;104203;-76
2021/04/18 02:04:47;;;;;;;18.03;7.77;;;;;;;9.35;56.37;100753.34;126228;1099;104149;-77
2021/04/18 02:07:17;;;;;;;20.73;8.30;;;;;;;9.36;55.85;100738.52;126105;1099;101884;-77
2021/04/18 02:09:46;;;;;;;21.80;8.47;;;;;;;9.37;56.26;100747.30;126145;1099;104188;-78
2021/04/18 02:12:16;;;;;;;18.67;8.20;;;;;;;9.35;56.63;100750.73;126223;1099;104229;-79
2021/04/18 02:14:45;;;;;;;18.37;8.53;;;;;;;9.34;56.53;100748.92;126210;1099;104153;-76
2021/04/18 02:17:18;;;;;;;17.27;7.97;;;;;;;9.33;56.04;100744.54;126214;1099;104220;-77
2021/04/18 02:19:47;;;;;;;19.83;8.17;;;;;;;9.31;56.43;100734.81;126190;1099;104296;-77
2021/04/18 02:22:16;;;;;;;18.17;9.03;;;;;;;9.27;56.43;100736.41;126178;1099;104370;-77
2021/04/18 02:24:49;;;;;;;20.13;8.93;;;;;;;9.26;56.13;100736.34;126211;1099;104257;-76
2021/04/18 02:27:20;;;;;;;22.70;9.20;;;;;;;9.23;56.14;100731.84;126204;1098;104140;-77
2021/04/18 02:29:58;;;;;;;21.30;8.83;;;;;;;9.24;56.28;100743.21;126208;1098;104191;-77
2021/04/18 02:32:31;;;;;;;23.03;9.80;;;;;;;9.24;56.34;100735.35;126260;1099;104258;-77
2021/04/18 02:35:05;;;;;;;22.30;9.20;;;;;;;9.25;56.56;100739.77;126264;1098;104139;-77
2021/04/18 02:37:35;;;;;;;20.00;8.57;;;;;;;9.25;56.62;100735.42;126261;1099;104268;-76
2021/04/18 02:40:06;;;;;;;19.70;8.57;;;;;;;9.25;56.50;100738.05;126171;1099;104146;-77
2021/04/18 02:42:35;;;;;;;19.40;8.60;;;;;;;9.25;56.61;100745.02;126221;1099;104137;-76
2021/04/18 02:45:06;;;;;;;20.57;8.30;;;;;;;9.23;56.55;100739.70;126218;1099;104143;-77
2021/04/18 02:47:41;;;;;;;19.60;8.40;;;;;;;9.21;57.39;100738.75;126152;1099;104287;-77
2021/04/18 02:50:12;;;;;;;21.13;9.10;;;;;;;9.21;56.87;100737.83;126181;1099;104213;-77
2021/04/18 02:52:41;;;;;;;20.77;8.87;;;;;;;9.19;57.11;100737.77;126185;1098;104134;-77
2021/04/18 02:55:12;;;;;;;21.60;8.67;;;;;;;9.18;57.39;100738.61;126211;1098;104149;-77
2021/04/18 02:57:52;;;;;;;18.47;8.73;;;;;;;9.16;57.10;100740.24;126218;1099;104149;-78
2021/04/18 03:00:22;;;;;;;19.33;9.17;;;;;;;9.15;57.63;100741.98;126131;1099;104175;-78
2021/04/18 03:02:51;;;;;;;20.27;9.23;;;;;;;9.11;57.61;100737.42;126203;1099;104149;-78
2021/04/18 03:05:20;;;;;;;18.07;8.67;;;;;;;9.10;57.20;100739.97;126169;1099;104143;-77
2021/04/18 03:07:54;;;;;;;18.70;9.13;;;;;;;9.08;57.56;100741.63;126162;1098;104185;-75
2021/04/18 03:10:24;;;;;;;18.60;8.47;;;;;;;9.09;57.03;100738.20;126178;1099;104155;-75
2021/04/18 03:12:53;;;;;;;19.53;8.77;;;;;;;9.11;57.81;100737.42;126149;1099;104153;-75
2021/04/18 03:15:23;;;;;;;18.93;8.67;;;;;;;9.13;57.24;100733.17;126211;1099;104274;-75
2021/04/18 03:17:54;;;;;;;20.80;9.05;;;;;;;9.16;57.31;100730.69;126142;1099;104268;-74
2021/04/18 03:20:23;;;;;;;19.00;9.30;;;;;;;9.18;57.23;100733.38;126199;1099;102105;-75
2021/04/18 03:22:52;;;;;;;19.95;9.15;;;;;;;9.20;57.89;100728.20;126186;1099;104111;-78
2021/04/18 03:25:21;;;;;;;19.53;9.03;;;;;;;9.24;57.68;100736.27;126147;1099;104182;-78
2021/04/18 03:27:51;;;;;;;19.60;9.43;;;;;;;9.25;57.59;100737.16;126176;1099;104286;-77
2021/04/18 03:30:27;;;;;;;19.97;9.17;;;;;;;9.27;58.12;100735.48;126154;1099;104146;-77
2021/04/18 03:32:59;;;;;;;20.20;9.93;;;;;;;9.24;57.75;100738.89;126229;1099;104271;-78
2021/04/18 03:35:29;;;;;;;19.17;8.97;;;;;;;9.24;57.66;100740.59;126151;1099;104261;-76
2021/04/18 03:37:59;;;;;;;21.30;10.23;;;;;;;9.22;57.82;100732.67;126192;1098;104166;-78
2021/04/18 03:40:28;;;;;;;22.03;9.80;;;;;;;9.21;57.81;100737.83;126148;1097;104173;-77
2021/04/18 03:42:57;;;;;;;24.23;10.67;;;;;;;9.19;58.05;100732.53;126128;1099;102985;-77
2021/04/18 03:45:26;;;;;;;30.93;13.53;;;;;;;9.17;57.86;100734.19;126173;1099;104178;-77
2021/04/18 03:47:57;;;;;;;25.47;11.43;;;;;;;9.15;57.96;100730.62;126188;1099;104345;-77
2021/04/18 03:50:27;;;;;;;21.70;9.90;;;;;;;9.15;57.70;100739.36;126125;1099;104300;-77
2021/04/18 03:53:12;;;;;;;22.43;10.10;;;;;;;9.16;58.45;100733.31;126183;1099;104181;-77
2021/04/18 03:55:43;;;;;;;20.80;8.97;;;;;;;9.18;57.75;100736.88;126213;1099;102054;-77
2021/04/18 03:58:13;;;;;;;21.27;9.20;;;;;;;9.21;57.83;100740.45;126054;1099;103255;-78
2021/04/18 04:00:44;;;;;;;21.20;9.30;;;;;;;9.25;57.80;100743.28;126144;1099;103262;-77
2021/04/18 04:03:14;;;;;;;22.00;10.37;;;;;;;9.26;58.03;100752.94;126159;1099;104166;-77
2021/04/18 04:05:46;;;;;;;21.07;9.70;;;;;;;9.28;57.99;100758.24;126175;1099;104161;-77
2021/04/18 04:08:17;;;;;;;20.37;10.30;;;;;;;9.30;58.37;100760.11;126136;1099;103391;-77
2021/04/18 04:10:46;;;;;;;19.50;9.73;;;;;;;9.31;58.40;100766.23;126121;1099;104169;-77
2021/04/18 04:13:16;;;;;;;23.30;9.90;;;;;;;9.30;58.37;100760.11;126150;1099;104185;-77
2021/04/18 04:15:46;;;;;;;21.33;10.30;;;;;;;9.29;58.81;100766.17;126145;1099;104156;-77
2021/04/18 04:18:16;;;;;;;24.60;10.80;;;;;;;9.28;58.57;100772.22;126204;1100;104157;-77
2021/04/18 04:21:01;;;;;;;20.63;9.70;;;;;;;9.30;58.30;100772.29;126118;1099;105823;-78
2021/04/18 04:23:42;;;;;;;21.93;10.10;;;;;;;9.33;58.51;100773.34;126197;1099;104175;-77
2021/04/18 04:26:11;;;;;;;22.63;9.07;;;;;;;9.35;58.50;100768.17;126130;1098;104141;-78
2021/04/18 04:28:40;;;;;;;22.80;9.63;;;;;;;9.44;58.50;100778.16;126036;1099;104357;-78
2021/04/18 04:31:09;;;;;;;18.83;10.27;;;;;;;9.49;58.99;100779.23;126110;1099;104131;-77
2021/04/18 04:33:38;;;;;;;23.03;11.40;;;;;;;9.50;58.82;100774.07;126084;1099;104198;-77
2021/04/18 04:36:08;;;;;;;20.73;10.93;;;;;;;9.53;58.71;100779.45;126117;1099;104160;-77
2021/04/18 04:38:37;;;;;;;22.43;10.87;;;;;;;9.54;58.50;100773.39;126400;1099;104110;-75
2021/04/18 04:41:06;;;;;;;24.23;11.50;;;;;;;9.57;59.13;100769.10;126054;1099;104297;-75
2021/04/18 04:43:35;;;;;;;24.63;11.03;;;;;;;9.61;59.00;100776.28;126119;1099;104361;-75
2021/04/18 04:46:04;;;;;;;20.70;10.30;;;;;;;9.67;58.69;100787.91;126143;1098;102932;-75
2021/04/18 04:48:33;;;;;;;22.07;10.70;;;;;;;9.73;58.46;100781.17;126197;1098;104131;-76
2021/04/18 04:51:02;;;;;;;20.13;10.40;;;;;;;9.75;59.07;100789.98;126194;1099;104317;-77
2021/04/18 04:53:31;;;;;;;21.40;10.73;;;;;;;9.81;58.60;100779.77;126045;1099;104418;-77
2021/04/18 04:56:00;;;;;;;19.60;10.37;;;;;;;9.83;59.15;100780.72;126188;1099;104146;-78
2021/04/18 04:58:28;;;;;;;20.27;10.20;;;;;;;9.88;59.18;100776.59;126174;1099;104217;-77
2021/04/18 05:00:57;;;;;;;21.17;10.70;;;;;;;9.93;59.12;100780.30;126183;1099;104140;-77
2021/04/18 05:03:27;;;;;;;21.60;11.07;;;;;;;9.90;59.11;100774.93;126138;1099;104260;-77
2021/04/18 05:05:57;;;;;;;21.50;10.97;;;;;;;9.96;58.74;100783.05;126064;1099;104463;-77
2021/04/18 05:08:25;;;;;;;23.27;10.93;;;;;;;10.00;58.83;100779.75;126096;1099;104306;-77
2021/04/18 05:10:54;;;;;;;21.63;10.97;;;;;;;10.07;59.06;100780.89;126176;1099;105187;-77
2021/04/18 05:13:23;;;;;;;23.30;10.53;;;;;;;10.16;58.90;100773.41;126126;1099;104302;-78
2021/04/18 05:15:51;;;;;;;23.17;10.70;;;;;;;10.28;58.75;100766.88;126195;1099;102189;-77
2021/04/18 05:18:20;;;;;;;22.97;10.63;;;;;;;10.38;58.65;100769.09;126124;1099;104146;-77
2021/04/18 05:20:49;;;;;;;21.50;11.00;;;;;;;10.46;58.89;100770.28;126149;1099;104284;-78
2021/04/18 05:23:18;;;;;;;22.17;10.40;;;;;;;10.57;58.98;100775.97;126053;1099;104162;-78
2021/04/18 05:25:47;;;;;;;19.93;10.60;;;;;;;10.59;58.63;100774.28;126184;1099;104143;-77
2021/04/18 05:28:15;;;;;;;20.37;9.90;;;;;;;10.61;58.54;100767.36;126184;1099;101921;-77
2021/04/18 05:30:44;;;;;;;22.00;9.95;;;;;;;10.61;58.45;100768.28;126119;1099;101987;-78
2021/04/18 05:33:13;;;;;;;19.30;9.67;;;;;;;10.60;58.48;100765.59;126132;1099;104149;-78
2021/04/18 05:35:42;;;;;;;20.00;10.00;;;;;;;10.57;58.47;100763.73;126180;1099;104344;-77
2021/04/18 05:38:10;;;;;;;20.23;10.40;;;;;;;10.56;58.51;100758.42;126104;1099;103021;-78
2021/04/18 05:40:39;;;;;;;19.73;10.00;;;;;;;10.58;58.97;100756.73;126136;1099;104246;-78
2021/04/18 05:43:09;;;;;;;18.43;8.50;;;;;;;10.58;58.46;100755.03;126045;1099;104239;-78
2021/04/18 05:45:39;;;;;;;19.03;9.30;;;;;;;10.60;58.38;100753.36;126111;1099;104139;-77
2021/04/18 05:48:08;;;;;;;17.33;9.03;;;;;;;10.68;58.88;100756.28;126167;1099;104153;-78
2021/04/18 05:50:38;;;;;;;20.17;9.80;;;;;;;10.79;58.56;100757.59;126165;1099;101837;-77
2021/04/18 05:53:07;;;;;;;19.97;9.27;;;;;;;10.90;59.04;100765.87;126151;1099;104139;-78
2021/04/18 05:55:37;;;;;;;18.87;9.43;;;;;;;11.02;58.63;100770.72;126134;1099;104168;-77
2021/04/18 05:58:07;;;;;;;19.23;10.10;;;;;;;11.09;58.52;100771.84;126205;1099;104166;-77
2021/04/18 06:00:36;;;;;;;20.93;9.60;;;;;;;11.15;58.53;100765.08;126219;1099;104649;-77
2021/04/18 06:03:05;;;;;;;20.37;9.57;;;;;;;11.24;58.48;100761.91;126166;1099;104143;-77
2021/04/18 06:05:34;;;;;;;23.47;11.23;;;;;;;11.35;58.44;100762.31;126138;1099;104284;-77
2021/04/18 06:08:03;;;;;;;24.20;10.77;;;;;;;11.41;58.46;100757.28;126079;1099;104181;-77
2021/04/18 06:10:32;;;;;;;21.57;10.20;;;;;;;11.55;58.53;100751.64;126210;1099;104133;-77
2021/04/18 06:13:00;;;;;;;20.23;9.80;;;;;;;11.65;58.39;100754.62;126146;1099;104143;-77
2021/04/18 06:15:29;;;;;;;22.60;9.40;;;;;;;11.67;58.38;100750.33;126219;1099;104146;-77
2021/04/18 06:17:58;;;;;;;18.10;9.23;;;;;;;11.72;58.22;100749.58;125973;1099;105503;-78
2021/04/18 06:20:27;;;;;;;20.87;9.80;;;;;;;11.72;58.11;100749.58;126043;1099;104395;-77
2021/04/18 06:22:55;;;;;;;19.57;9.50;;;;;;;11.74;57.99;100754.06;125983;1099;104159;-77
2021/04/18 06:25:25;;;;;;;20.00;10.27;;;;;;;11.77;58.25;100746.28;125914;1099;104456;-78
2021/04/18 06:27:53;;;;;;;20.03;9.23;;;;;;;11.82;58.17;100749.95;125278;1099;104316;-77
2021/04/18 06:30:23;;;;;;;16.37;7.70;;;;;;;11.88;58.13;100758.05;126062;1099;104307;-77
2021/04/18 06:32:51;;;;;;;21.30;10.03;;;;;;;11.90;57.89;100746.70;125370;1099;104274;-77
2021/04/18 06:35:20;;;;;;;21.40;9.27;;;;;;;11.95;58.02;100753.04;125860;1099;104441;-78
2021/04/18 06:37:49;;;;;;;20.03;9.30;;;;;;;12.08;57.92;100760.52;125985;1099;104213;-78
2021/04/18 06:40:18;;;;;;;17.63;8.73;;;;;;;12.11;57.68;100760.62;126126;1099;104153;-76
2021/04/18 06:42:48;;;;;;;20.27;9.80;;;;;;;12.13;57.56;100763.30;126107;1099;105431;-77
2021/04/18 06:45:17;;;;;;;15.43;8.10;;;;;;;12.17;57.51;100760.83;125975;1099;104133;-77
2021/04/18 06:47:47;;;;;;;18.20;9.07;;;;;;;12.15;57.35;100759.86;126144;1099;104296;-77
2021/04/18 06:50:16;;;;;;;18.90;8.70;;;;;;;12.16;57.25;100756.40;126218;1099;104267;-77
2021/04/18 06:52:46;;;;;;;15.67;8.87;;;;;;;12.21;57.29;100757.44;126259;1099;104195;-77
2021/04/18 06:55:17;;;;;;;17.30;8.93;;;;;;;12.37;57.16;100758.85;126205;1099;104146;-77
2021/04/18 06:57:46;;;;;;;17.30;8.27;;;;;;;12.50;56.97;100761.88;126189;1099;104065;-77
2021/04/18 07:00:16;;;;;;;18.33;8.07;;;;;;;12.58;56.47;100757.75;126227;1099;104194;-78
2021/04/18 07:02:45;;;;;;;18.23;8.47;;;;;;;12.65;56.58;100754.44;126244;1099;104184;-76
2021/04/18 07:05:16;;;;;;;18.40;8.97;;;;;;;12.82;56.86;100759.34;126180;1098;104280;-77
2021/04/18 07:07:46;;;;;;;18.33;8.57;;;;;;;12.93;56.96;100750.94;126252;1099;104220;-76
2021/04/18 07:10:27;;;;;;;16.73;8.13;;;;;;;13.01;55.51;100753.80;126256;1099;104281;-78
2021/04/18 07:12:55;;;;;;;17.70;8.60;;;;;;;13.17;56.68;100757.78;126195;1099;104143;-77
2021/04/18 07:15:38;;;;;;;18.80;8.80;;;;;;;13.27;55.66;100759.81;126179;1099;104169;-78
2021/04/18 07:18:09;;;;;;;19.57;7.83;;;;;;;13.33;55.86;100755.59;126243;1098;104153;-76
2021/04/18 07:20:52;;;;;;;19.17;8.70;;;;;;;13.52;56.29;100762.30;126152;1099;104225;-77
2021/04/18 07:23:26;;;;;;;18.73;7.80;;;;;;;13.58;55.78;100760.72;126133;1099;104762;-77
2021/04/18 07:25:57;;;;;;;19.77;8.67;;;;;;;13.58;55.26;100754.56;126162;1099;104175;-76
2021/04/18 07:28:28;;;;;;;18.53;9.03;;;;;;;13.50;54.94;100759.62;125336;1099;104156;-77
2021/04/18 07:31:02;;;;;;;20.17;8.87;;;;;;;13.55;56.00;100760.62;126170;1098;104595;-76
2021/04/18 07:33:30;;;;;;;;;;;;;;;13.55;54.56;100763.27;126271;1099;104157;-78
2021/04/18 07:35:58;;;;;;;14.77;7.50;;;;;;;13.55;53.79;100760.62;126233;1099;104140;-78
2021/04/18 07:38:29;;;;;;;16.33;8.20;;;;;;;13.41;54.42;100761.99;126225;1099;104200;-78
2021/04/18 07:41:14;;;;;;;16.00;7.93;;;;;;;13.45;54.96;100756.85;126084;1099;104169;-75
2021/04/18 07:43:45;;;;;;;13.77;6.77;;;;;;;13.61;54.81;100747.62;126200;1099;104152;-78
2021/04/18 07:46:16;;;;;;;14.50;7.33;;;;;;;13.64;53.51;100746.81;126151;1099;104153;-78
2021/04/18 07:48:46;;;;;;;16.80;7.90;;;;;;;13.75;54.17;100741.83;125194;1102;104195;-77
2021/04/18 07:51:15;;;;;;;15.77;7.13;;;;;;;13.93;54.71;100737.05;125222;1099;104287;-77
2021/04/18 07:53:45;;;;;;;16.03;7.47;;;;;;;14.06;54.07;100735.60;125290;1099;104280;-78
2021/04/18 07:56:15;;;;;;;13.63;7.00;;;;;;;14.15;54.00;100735.83;125171;1099;104143;-77
2021/04/18 07:58:46;;;;;;;12.83;6.40;;;;;;;14.19;54.08;100728.87;125245;1099;104310;-76
2021/04/18 08:01:16;;;;;;;15.60;7.20;;;;;;;14.27;53.57;100727.30;125222;1099;104015;-77
2021/04/18 08:03:48;;;;;;;13.75;6.00;;;;;;;14.37;53.00;100724.05;125285;1100;104185;-77
2021/04/18 08:06:20;;;;;;;12.20;6.37;;;;;;;14.23;52.33;100724.55;125206;1099;104146;-77
2021/04/18 08:08:51;;;;;;;13.63;6.50;;;;;;;14.11;53.09;100727.80;125249;1099;104178;-77
2021/04/18 08:11:22;;;;;;;13.97;6.87;;;;;;;14.20;53.29;100722.75;125218;1099;104205;-78
2021/04/18 08:13:52;;;;;;;16.07;6.57;;;;;;;14.39;52.67;100718.80;125150;1102;104224;-77
2021/04/18 08:16:32;;;;;;;13.83;6.73;;;;;;;14.47;52.24;100708.42;125136;1099;104199;-77
2021/04/18 08:19:08;;;;;;;14.60;6.90;;;;;;;14.55;52.06;100705.11;125226;1102;104219;-77
2021/04/18 08:21:40;;;;;;;13.87;6.50;;;;;;;14.62;52.18;100697.36;126206;1099;104210;-77
2021/04/18 08:24:37;;;;;;;13.37;6.00;;;;;;;14.71;51.98;100694.92;126237;1098;104140;-77
2021/04/18 08:27:08;;;;;;;14.77;6.00;;;;;;;14.68;50.74;100693.09;126114;1099;104225;-77
2021/04/18 08:30:03;;;;;;;13.90;6.00;;;;;;;14.65;52.38;100687.75;126274;1099;104165;-77
2021/04/18 08:32:44;;;;;;;12.50;5.87;;;;;;;14.71;50.68;100693.16;126243;1097;104275;-78
2021/04/18 08:35:20;;;;;;;12.13;5.60;;;;;;;14.61;50.57;100692.92;126284;1099;104236;-78
2021/04/18 08:38:23;;;;;;;11.40;6.03;;;;;;;14.56;50.45;100683.11;126222;1099;104243;-78
2021/04/18 08:41:04;;;;;;;12.13;5.93;;;;;;;14.36;50.35;100687.93;126214;1099;104169;-78
2021/04/18 08:43:33;;;;;;;12.25;6.10;;;;;;;14.48;50.86;100681.17;126250;1099;104592;-77
2021/04/18 08:46:02;;;;;;;17.33;6.83;;;;;;;14.56;51.35;100679.59;126194;1099;104140;-78
2021/04/18 08:48:31;;;;;;;13.77;6.30;;;;;;;14.71;50.65;100677.31;126188;1099;104210;-77
2021/04/18 08:51:02;;;;;;;12.33;6.30;;;;;;;14.84;50.50;100685.51;126290;1098;104239;-77
2021/04/18 08:53:55;;;;;;;14.30;6.70;;;;;;;14.85;50.45;100684.63;126187;1099;104152;-76
2021/04/18 08:56:42;;;;;;;11.07;5.97;;;;;;;14.85;49.79;100677.61;126174;1099;104175;-77
2021/04/18 08:59:11;;;;;;;14.53;7.07;;;;;;;14.90;49.39;100686.52;126288;1099;104264;-77
2021/04/18 09:01:52;;;;;;;14.17;6.10;;;;;;;14.87;48.88;100678.53;126279;1099;104149;-78
2021/04/18 09:04:22;;;;;;;13.27;6.53;;;;;;;14.89;49.40;100681.20;126281;1099;104231;-79
2021/04/18 09:06:51;;;;;;;13.83;6.67;;;;;;;14.84;49.00;100680.22;126140;1099;104197;-76
2021/04/18 09:09:20;;;;;;;13.43;7.17;;;;;;;14.87;48.78;100675.88;126280;1099;104152;-79
2021/04/18 09:11:50;;;;;;;13.30;6.50;;;;;;;14.97;49.36;100674.31;126262;1099;104156;-77
2021/04/18 09:14:25;;;;;;;17.50;6.80;;;;;;;15.07;49.94;100673.66;126243;1099;104137;-77
2021/04/18 09:17:06;;;;;;;14.10;6.93;;;;;;;15.27;49.60;100667.88;126131;1099;104781;-76
2021/04/18 09:19:35;;;;;;;15.00;6.87;;;;;;;15.49;49.94;100660.32;126106;1099;104216;-76
2021/04/18 09:22:08;;;;;;;14.00;6.27;;;;;;;15.65;49.55;100657.10;126201;1099;104162;-76
2021/04/18 09:24:42;;;;;;;12.33;6.00;;;;;;;15.78;48.68;100653.85;126223;1099;104255;-76
2021/04/18 09:27:12;;;;;;;;;;;;;;;15.92;49.36;100655.81;126215;1099;104172;-77
2021/04/18 09:29:47;;;;;;;10.97;6.00;;;;;;;16.11;48.44;100649.05;126157;1099;104150;-77
2021/04/18 09:32:21;;;;;;;11.67;6.40;;;;;;;16.23;49.08;100643.94;126179;1099;104165;-77
2021/04/18 09:34:50;;;;;;;13.75;6.28;;;;;;;16.31;48.89;100646.70;126245;1099;104140;-77
2021/04/18 09:37:23;;;;;;;12.67;6.20;;;;;;;16.41;48.34;100650.36;126217;1099;104134;-78
2021/04/18 09:39:56;;;;;;;12.27;6.07;;;;;;;16.31;48.22;100641.41;126245;1098;104149;-78
2021/04/18 09:42:27;;;;;;;11.43;5.60;;;;;;;16.33;48.56;100637.02;126202;1099;104273;-77
2021/04/18 09:45:07;;;;;;;12.95;6.20;;;;;;;16.48;47.92;100633.70;126174;1099;101911;-77
2021/04/18 09:47:36;;;;;;;11.00;5.70;;;;;;;16.38;46.61;100635.34;126237;1098;104156;-78
2021/04/18 09:50:14;;;;;;;10.83;5.60;;;;;;;16.33;47.37;100642.31;126204;1099;104175;-75
2021/04/18 09:52:43;;;;;;;11.97;5.60;;;;;;;16.45;48.12;100639.84;126248;1099;104255;-76
2021/04/18 09:55:17;;;;;;;10.83;5.77;;;;;;;16.55;47.69;100632.93;126209;1098;104296;-77
2021/04/18 09:57:52;;;;;;;11.88;5.70;;;;;;;16.59;46.87;100634.73;125986;1099;104173;-77
2021/04/18 10:00:33;;;;;;;12.30;5.40;;;;;;;16.68;46.87;100628.67;126207;1099;104134;-76
2021/04/18 10:03:09;;;;;;;9.83;5.23;;;;;;;16.84;46.37;100630.66;126200;1099;104171;-77
2021/04/18 10:05:55;;;;;;;11.70;5.70;;;;;;;16.85;46.31;100619.16;126264;1099;104272;-77
2021/04/18 10:08:26;;;;;;;13.07;5.90;;;;;;;16.98;46.68;100621.99;126188;1099;104160;-77
2021/04/18 10:10:58;;;;;;;12.63;6.10;;;;;;;17.14;46.12;100615.09;126250;1099;104143;-78
2021/04/18 10:13:37;;;;;;;10.27;5.30;;;;;;;17.21;45.48;100608.98;126297;1098;104277;-77
2021/04/18 10:16:07;;;;;;;9.80;5.63;;;;;;;17.22;45.80;100606.36;126272;1098;104143;-77
2021/04/18 10:18:40;;;;;;;13.03;6.60;;;;;;;17.38;45.46;100607.39;126233;1097;104159;-78
2021/04/18 10:21:21;;;;;;;14.77;5.60;;;;;;;17.66;45.73;100602.33;126287;1099;104150;-76
2021/04/18 10:23:52;;;;;;;10.23;5.47;;;;;;;17.74;45.20;100591.78;126216;1099;104134;-76
2021/04/18 10:26:23;;;;;;;8.43;5.40;;;;;;;17.69;43.57;100602.36;126154;1099;104139;-77
2021/04/18 10:28:54;;;;;;;11.80;5.70;;;;;;;17.52;44.59;100596.03;125262;1099;104140;-77
2021/04/18 10:31:24;;;;;;;10.10;5.13;;;;;;;17.61;45.00;100593.45;126077;1099;104207;-77
2021/04/18 10:33:53;;;;;;;10.67;5.43;;;;;;;17.80;44.97;100591.83;126035;1099;104300;-76
2021/04/18 10:36:22;;;;;;;11.17;5.40;;;;;;;17.84;43.84;100595.38;126041;1099;104205;-77
2021/04/18 10:38:51;;;;;;;11.07;5.53;;;;;;;17.67;43.90;100596.16;126071;1099;104153;-78
2021/04/18 10:41:20;;;;;;;10.70;5.13;;;;;;;17.68;44.07;100589.08;126205;1099;104232;-77
2021/04/18 10:43:48;;;;;;;8.77;5.13;;;;;;;17.76;44.27;100584.70;125397;1099;104136;-78
2021/04/18 10:46:18;;;;;;;11.73;5.40;;;;;;;17.88;43.95;100582.18;126249;1098;104201;-77
2021/04/18 10:48:47;;;;;;;8.23;4.70;;;;;;;17.81;43.94;100596.27;126213;1099;104166;-76
2021/04/18 10:51:17;;;;;;;8.90;5.10;;;;;;;17.72;43.44;100594.42;126224;1099;104226;-77
2021/04/18 10:53:47;;;;;;;8.07;4.67;;;;;;;17.55;43.30;100581.02;126256;1099;104153;-77
2021/04/18 10:56:16;;;;;;;10.10;5.30;;;;;;;17.47;43.40;100582.72;126275;1099;104242;-77
2021/04/18 10:58:45;;;;;;;11.43;5.37;;;;;;;17.40;42.97;100578.22;126232;1099;104349;-78
2021/04/18 11:01:13;;;;;;;9.00;4.83;;;;;;;17.33;42.16;100576.41;126229;1099;107054;-77
2021/04/18 11:03:42;;;;;;;8.07;4.90;;;;;;;17.27;42.72;100574.58;126243;1099;105342;-76
2021/04/18 11:06:11;;;;;;;6.13;4.03;;;;;;;17.29;42.81;100572.82;126267;1099;104275;-78
2021/04/18 11:08:40;;;;;;;11.17;4.10;;;;;;;17.39;42.80;100573.78;126282;1099;104193;-77
2021/04/18 11:11:10;;;;;;;6.53;4.13;;;;;;;17.38;42.66;100577.33;126294;1099;104146;-77
2021/04/18 11:13:38;;;;;;;10.50;5.73;;;;;;;17.32;41.96;100582.58;126237;1099;104280;-77
2021/04/18 11:16:08;;;;;;;11.03;5.83;;;;;;;17.06;41.62;100581.45;126105;1099;104149;-77
2021/04/18 11:18:37;;;;;;;13.17;5.87;;;;;;;16.86;41.80;100575.02;126254;1099;104191;-77
2021/04/18 11:21:06;;;;;;;11.53;5.43;;;;;;;16.81;42.15;100576.70;126226;1099;104136;-78
2021/04/18 11:23:35;;;;;;;9.40;4.87;;;;;;;16.82;42.28;100587.33;126241;1099;104268;-78
2021/04/18 11:26:04;;;;;;;9.97;5.07;;;;;;;16.79;41.67;100583.77;126222;1099;104293;-78